createdAt,value
2023-04-16T00:01:20.646Z,6.70
2023-04-16T00:03:48.330Z,7.43
2023-04-16T00:06:15.756Z,7.72
2023-04-16T00:08:43.693Z,9.05
2023-04-16T00:11:11.635Z,7.50
2023-04-16T00:13:38.747Z,6.37
2023-04-16T00:16:06.226Z,6.20
2023-04-16T00:18:33.677Z,4.68
2023-04-16T00:21:00.963Z,5.05
2023-04-16T00:23:28.089Z,4.22
2023-04-16T00:25:57.232Z,4.72
2023-04-16T00:28:24.445Z,4.20
2023-04-16T00:30:51.633Z,4.25
2023-04-16T00:33:19.083Z,3.10
2023-04-16T00:35:47.172Z,3.45
2023-04-16T00:38:15.854Z,2.70
2023-04-16T00:40:43.265Z,2.75
2023-04-16T00:43:10.524Z,3.03
2023-04-16T00:45:38.617Z,2.72
2023-04-16T00:48:06.160Z,2.90
2023-04-16T00:50:33.884Z,1.98
2023-04-16T00:53:01.790Z,2.60
2023-04-16T00:55:29.572Z,2.67
2023-04-16T00:57:56.725Z,3.00
2023-04-16T01:00:23.949Z,2.70
2023-04-16T01:02:51.507Z,2.80
2023-04-16T01:05:19.374Z,3.53
2023-04-16T01:07:46.510Z,2.55
2023-04-16T01:10:13.936Z,2.70
2023-04-16T01:12:41.105Z,2.85
2023-04-16T01:15:08.809Z,3.50
2023-04-16T01:17:36.256Z,3.30
2023-04-16T01:20:03.842Z,3.28
2023-04-16T01:22:30.930Z,3.58
2023-04-16T01:24:58.317Z,3.42
2023-04-16T01:27:25.373Z,4.15
2023-04-16T01:29:52.689Z,4.20
2023-04-16T01:32:20.702Z,4.37
2023-04-16T01:34:48.001Z,6.18
2023-04-16T01:37:20.841Z,6.47
2023-04-16T01:39:48.419Z,6.32
2023-04-16T01:42:15.672Z,6.93
2023-04-16T01:44:43.507Z,7.18
2023-04-16T01:47:10.872Z,6.80
2023-04-16T01:49:38.277Z,7.70
2023-04-16T01:52:05.417Z,7.62
2023-04-16T01:54:32.845Z,8.95
2023-04-16T01:56:59.837Z,8.95
2023-04-16T01:59:26.993Z,9.52
2023-04-16T02:01:54.551Z,9.82
2023-04-16T02:04:22.781Z,10.52
2023-04-16T02:06:50.285Z,10.55
2023-04-16T02:09:17.758Z,10.93
2023-04-16T02:11:45.147Z,11.45
2023-04-16T02:14:12.251Z,12.07
2023-04-16T02:16:39.443Z,12.25
2023-04-16T02:19:07.358Z,12.88
2023-04-16T02:21:35.612Z,12.98
2023-04-16T02:24:03.281Z,13.32
2023-04-16T02:26:30.688Z,13.32
2023-04-16T02:28:58.691Z,12.75
2023-04-16T02:31:28.528Z,13.13
2023-04-16T02:33:56.231Z,12.48
2023-04-16T02:36:23.869Z,12.77
2023-04-16T02:38:51.075Z,12.90
2023-04-16T02:41:18.224Z,12.73
2023-04-16T02:43:45.625Z,12.52
2023-04-16T02:46:12.765Z,11.60
2023-04-16T02:48:40.120Z,11.63
2023-04-16T02:51:07.771Z,11.18
2023-04-16T02:53:35.032Z,11.35
2023-04-16T02:56:02.474Z,11.05
2023-04-16T02:58:29.886Z,11.20
2023-04-16T03:00:57.110Z,11.45
2023-04-16T03:03:24.327Z,10.25
2023-04-16T03:05:51.967Z,11.00
2023-04-16T03:08:19.102Z,11.40
2023-04-16T03:10:46.354Z,10.68
2023-04-16T03:13:14.610Z,10.77
2023-04-16T03:15:41.757Z,10.70
2023-04-16T03:18:08.912Z,11.65
2023-04-16T03:20:36.380Z,11.77
2023-04-16T03:23:03.531Z,12.25
2023-04-16T03:25:30.596Z,12.90
2023-04-16T03:27:58.083Z,11.40
2023-04-16T03:30:25.363Z,11.27
2023-04-16T03:32:52.564Z,10.15
2023-04-16T03:35:21.125Z,10.10
2023-04-16T03:37:50.185Z,9.07
2023-04-16T03:40:17.964Z,10.13
2023-04-16T03:42:45.421Z,9.68
2023-04-16T03:45:12.553Z,9.70
2023-04-16T03:47:39.878Z,9.95
2023-04-16T03:50:08.018Z,10.02
2023-04-16T03:52:36.319Z,9.70
2023-04-16T03:55:04.103Z,10.43
2023-04-16T03:57:31.683Z,9.25
2023-04-16T04:00:00.509Z,9.57
2023-04-16T04:02:28.046Z,8.13
2023-04-16T04:04:55.736Z,9.32
2023-04-16T04:07:23.536Z,9.23
2023-04-16T04:09:52.214Z,8.82
2023-04-16T04:12:19.651Z,8.65
2023-04-16T04:14:47.345Z,8.30
2023-04-16T04:17:14.530Z,8.25
2023-04-16T04:19:47.112Z,8.77
2023-04-16T04:22:18.642Z,9.07
2023-04-16T04:24:46.063Z,8.32
2023-04-16T04:27:13.899Z,9.38
2023-04-16T04:29:40.975Z,8.52
2023-04-16T04:32:08.437Z,10.27
2023-04-16T04:34:35.739Z,8.57
2023-04-16T04:37:03.466Z,8.10
2023-04-16T04:39:31.052Z,8.98
2023-04-16T04:41:58.392Z,8.60
2023-04-16T04:44:25.478Z,7.65
2023-04-16T04:46:52.993Z,8.48
2023-04-16T04:49:20.273Z,8.50
2023-04-16T04:51:48.200Z,8.25
2023-04-16T04:54:15.759Z,9.00
2023-04-16T04:56:45.814Z,8.57
2023-04-16T04:59:14.151Z,8.23
2023-04-16T05:01:41.989Z,8.20
2023-04-16T05:04:09.209Z,7.93
2023-04-16T05:06:36.438Z,8.20
2023-04-16T05:09:03.968Z,9.27
2023-04-16T05:11:31.148Z,7.18
2023-04-16T05:13:58.241Z,7.85
2023-04-16T05:16:25.672Z,8.02
2023-04-16T05:18:52.859Z,9.32
2023-04-16T05:21:20.147Z,10.10
2023-04-16T05:23:47.757Z,7.78
2023-04-16T05:26:14.928Z,6.97
2023-04-16T05:28:42.046Z,7.03
2023-04-16T05:31:09.403Z,8.18
2023-04-16T05:33:36.447Z,7.22
2023-04-16T05:36:03.730Z,7.00
2023-04-16T05:38:31.087Z,6.53
2023-04-16T05:40:58.657Z,6.32
2023-04-16T05:43:25.735Z,7.75
2023-04-16T05:45:53.081Z,6.87
2023-04-16T05:48:20.252Z,7.47
2023-04-16T05:50:47.295Z,6.62
2023-04-16T05:53:14.623Z,6.72
2023-04-16T05:55:41.636Z,6.62
2023-04-16T05:58:08.698Z,6.80
2023-04-16T06:00:36.211Z,7.15
2023-04-16T06:03:04.144Z,7.55
2023-04-16T06:05:31.470Z,6.90
2023-04-16T06:07:58.553Z,7.75
2023-04-16T06:10:26.154Z,7.70
2023-04-16T06:12:53.390Z,7.45
2023-04-16T06:15:20.386Z,7.18
2023-04-16T06:17:47.731Z,7.12
2023-04-16T06:20:14.812Z,7.32
2023-04-16T06:22:41.940Z,7.45
2023-04-16T06:25:09.664Z,7.50
2023-04-16T06:27:37.176Z,6.80
2023-04-16T06:30:04.750Z,5.95
2023-04-16T06:32:32.141Z,6.35
2023-04-16T06:34:59.306Z,6.40
2023-04-16T06:37:26.333Z,5.97
2023-04-16T06:39:53.626Z,5.68
2023-04-16T06:42:20.823Z,7.12
2023-04-16T06:44:47.936Z,6.75
2023-04-16T06:47:16.202Z,6.03
2023-04-16T06:49:43.331Z,5.10
2023-04-16T06:52:10.724Z,5.20
2023-04-16T06:54:38.516Z,5.15
2023-04-16T06:57:05.598Z,4.95
2023-04-16T06:59:32.630Z,4.65
2023-04-16T07:02:00.138Z,5.05
2023-04-16T07:04:27.428Z,5.37
2023-04-16T07:06:54.605Z,4.65
2023-04-16T07:09:21.941Z,4.97
2023-04-16T07:11:49.031Z,5.18
2023-04-16T07:14:16.106Z,4.62
2023-04-16T07:16:43.476Z,4.53
2023-04-16T07:19:10.995Z,3.83
2023-04-16T07:21:38.195Z,4.07
2023-04-16T07:24:05.742Z,4.40
2023-04-16T07:26:32.786Z,4.57
2023-04-16T07:28:59.855Z,4.25
2023-04-16T07:31:27.353Z,4.93
2023-04-16T07:33:54.497Z,3.92
2023-04-16T07:36:21.545Z,4.00
2023-04-16T07:38:48.887Z,3.25
2023-04-16T07:41:16.060Z,3.45
2023-04-16T07:43:43.070Z,3.67
2023-04-16T07:46:10.389Z,3.60
2023-04-16T07:48:37.404Z,3.05
2023-04-16T07:51:04.519Z,3.05
2023-04-16T07:53:31.942Z,3.10
2023-04-16T07:55:59.034Z,3.10
2023-04-16T07:58:26.122Z,2.80
2023-04-16T08:00:53.701Z,2.53
2023-04-16T08:03:21.401Z,2.60
2023-04-16T08:05:48.692Z,2.50
2023-04-16T08:08:16.068Z,3.25
2023-04-16T08:10:43.507Z,2.80
2023-04-16T08:13:10.733Z,2.40
2023-04-16T08:15:37.866Z,2.90
2023-04-16T08:18:12.861Z,2.95
2023-04-16T08:20:40.192Z,2.35
2023-04-16T08:23:07.744Z,3.33
2023-04-16T08:25:35.768Z,3.28
2023-04-16T08:28:02.977Z,3.37
2023-04-16T08:30:30.696Z,3.10
2023-04-16T08:32:57.934Z,4.03
2023-04-16T08:35:25.276Z,3.58
2023-04-16T08:37:53.772Z,3.00
2023-04-16T08:40:21.280Z,3.62
2023-04-16T08:42:58.299Z,3.12
2023-04-16T08:45:27.269Z,2.85
2023-04-16T08:50:26.626Z,2.33
2023-04-16T08:53:04.433Z,4.65
2023-04-16T08:55:40.264Z,2.70
2023-04-16T08:58:29.659Z,2.65
2023-04-16T09:00:56.881Z,2.60
2023-04-16T09:03:24.520Z,2.03
2023-04-16T09:05:52.268Z,2.40
2023-04-16T09:08:20.283Z,3.20
2023-04-16T09:10:49.034Z,2.50
2023-04-16T09:13:20.312Z,2.65
2023-04-16T09:15:47.900Z,1.62
2023-04-16T09:18:14.942Z,2.00
2023-04-16T09:20:42.059Z,1.45
2023-04-16T09:23:11.045Z,1.73
2023-04-16T09:25:38.653Z,1.40
2023-04-16T09:28:05.809Z,1.40
2023-04-16T09:30:34.569Z,1.40
2023-04-16T09:33:24.439Z,1.85
2023-04-16T09:35:53.144Z,2.10
2023-04-16T09:38:21.188Z,2.10
2023-04-16T09:40:48.613Z,1.77
2023-04-16T09:43:18.292Z,1.83
2023-04-16T09:45:53.250Z,2.15
2023-04-16T09:48:31.574Z,2.22
2023-04-16T09:51:02.098Z,1.95
2023-04-16T09:53:31.381Z,2.28
2023-04-16T09:56:03.620Z,2.22
2023-04-16T09:58:31.591Z,1.90
2023-04-16T10:01:03.425Z,2.17
2023-04-16T10:03:32.309Z,2.35
2023-04-16T10:06:19.272Z,2.05
2023-04-16T10:08:49.963Z,2.10
2023-04-16T10:11:18.854Z,2.17
2023-04-16T10:13:46.576Z,2.35
2023-04-16T10:16:14.154Z,2.42
2023-04-16T10:18:43.211Z,2.25
2023-04-16T10:21:12.720Z,2.40
2023-04-16T10:23:40.391Z,1.70
2023-04-16T10:26:07.920Z,2.40
2023-04-16T10:28:35.771Z,2.30
2023-04-16T10:31:07.008Z,2.60
2023-04-16T10:33:40.832Z,2.17
2023-04-16T10:36:15.865Z,2.03
2023-04-16T10:38:47.860Z,1.92
2023-04-16T10:41:15.945Z,1.67
2023-04-16T10:43:47.732Z,1.90
2023-04-16T10:46:30.841Z,1.90
2023-04-16T10:49:01.961Z,1.35
2023-04-16T10:51:36.543Z,1.20
2023-04-16T10:54:20.398Z,1.50
2023-04-16T10:56:47.976Z,1.75
2023-04-16T10:59:19.894Z,1.67
2023-04-16T11:01:52.875Z,1.50
2023-04-16T11:04:20.081Z,1.70
2023-04-16T11:07:06.238Z,1.75
2023-04-16T11:09:42.231Z,1.08
2023-04-16T11:12:13.060Z,1.30
2023-04-16T11:14:46.958Z,0.93
2023-04-16T11:17:14.501Z,1.08
2023-04-16T11:19:42.863Z,1.40
2023-04-16T11:22:13.962Z,1.52
2023-04-16T11:24:41.346Z,1.45
2023-04-16T11:27:08.736Z,1.62
2023-04-16T11:29:36.039Z,1.62
2023-04-16T11:32:03.549Z,1.40
2023-04-16T11:34:30.997Z,1.58
2023-04-16T11:36:58.387Z,1.17
2023-04-16T11:39:25.923Z,1.50
2023-04-16T11:41:53.113Z,1.42
2023-04-16T11:44:25.389Z,1.83
2023-04-16T11:46:54.178Z,1.10
2023-04-16T11:49:30.788Z,1.62
2023-04-16T11:51:59.026Z,1.48
2023-04-16T11:54:26.117Z,1.60
2023-04-16T11:56:53.707Z,1.73
2023-04-16T11:59:23.278Z,0.80
2023-04-16T12:01:52.387Z,1.10
2023-04-16T12:04:22.501Z,1.05
2023-04-16T12:07:15.970Z,1.42
2023-04-16T12:09:44.052Z,0.85
2023-04-16T12:12:31.873Z,1.15
2023-04-16T12:15:03.579Z,1.12
2023-04-16T12:17:35.412Z,1.30
2023-04-16T12:20:08.395Z,1.23
2023-04-16T12:22:37.751Z,1.27
2023-04-16T12:25:12.032Z,0.88
2023-04-16T12:27:53.983Z,1.20
2023-04-16T12:30:23.330Z,1.40
2023-04-16T12:32:52.480Z,1.37
2023-04-16T12:35:33.983Z,1.10
2023-04-16T12:38:01.591Z,0.98
2023-04-16T12:40:28.794Z,1.10
2023-04-16T12:42:56.025Z,1.08
2023-04-16T12:45:24.438Z,0.85
2023-04-16T12:47:51.742Z,0.85
2023-04-16T12:50:18.978Z,1.58
2023-04-16T12:52:46.448Z,1.20
2023-04-16T12:55:14.329Z,1.45
2023-04-16T12:57:41.427Z,1.10
2023-04-16T13:00:11.458Z,1.20
2023-04-16T13:02:38.736Z,1.10
2023-04-16T13:05:06.410Z,1.12
2023-04-16T13:07:34.147Z,1.00
2023-04-16T13:10:01.368Z,1.10
2023-04-16T13:12:28.516Z,0.70
2023-04-16T13:14:56.068Z,1.30
2023-04-16T13:17:23.202Z,1.23
2023-04-16T13:19:50.388Z,1.05
2023-04-16T13:22:17.844Z,1.40
2023-04-16T13:24:44.956Z,0.75
2023-04-16T13:27:12.775Z,0.93
2023-04-16T13:29:40.274Z,1.00
2023-04-16T13:32:07.501Z,1.00
2023-04-16T13:34:34.622Z,1.00
2023-04-16T13:37:01.993Z,1.15
2023-04-16T13:39:29.100Z,0.90
2023-04-16T13:41:56.122Z,1.00
2023-04-16T13:44:23.490Z,1.12
2023-04-16T13:46:50.726Z,1.62
2023-04-16T13:49:17.794Z,0.77
2023-04-16T13:51:45.124Z,1.25
2023-04-16T13:54:12.114Z,1.02
2023-04-16T13:56:39.592Z,0.80
2023-04-16T13:59:07.168Z,1.37
2023-04-16T14:01:34.744Z,0.70
2023-04-16T14:04:06.426Z,1.15
2023-04-16T14:06:37.010Z,0.88
2023-04-16T14:09:04.517Z,0.90
2023-04-16T14:11:31.740Z,1.00
2023-04-16T14:13:58.904Z,0.50
2023-04-16T14:16:27.396Z,1.00
2023-04-16T14:18:54.622Z,1.15
2023-04-16T14:21:21.748Z,0.80
2023-04-16T14:23:49.725Z,0.70
2023-04-16T14:26:16.914Z,1.20
2023-04-16T14:28:44.472Z,0.80
2023-04-16T14:31:11.960Z,0.90
2023-04-16T14:33:39.268Z,0.80
2023-04-16T14:36:06.602Z,0.80
2023-04-16T14:38:34.035Z,0.88
2023-04-16T14:41:01.316Z,1.20
2023-04-16T14:43:28.450Z,0.60
2023-04-16T14:45:57.127Z,0.90
2023-04-16T14:48:24.384Z,1.00
2023-04-16T14:50:51.419Z,1.10
2023-04-16T14:53:19.803Z,1.05
2023-04-16T14:55:46.845Z,0.73
2023-04-16T14:58:13.952Z,1.35
2023-04-16T15:00:41.533Z,0.77
2023-04-16T15:03:12.114Z,0.57
2023-04-16T15:05:39.306Z,1.00
2023-04-16T15:08:07.249Z,1.05
2023-04-16T15:10:35.099Z,1.52
2023-04-16T15:13:02.178Z,3.42
2023-04-16T15:15:29.674Z,2.47
2023-04-16T15:17:57.781Z,1.05
2023-04-16T15:20:24.918Z,0.90
2023-04-16T15:22:53.883Z,2.42
2023-04-16T15:25:21.026Z,3.15
2023-04-16T15:27:48.121Z,3.08
2023-04-16T15:30:15.801Z,3.33
2023-04-16T15:32:44.612Z,1.60
2023-04-16T15:35:13.057Z,1.23
2023-04-16T15:37:40.911Z,1.20
2023-04-16T15:40:08.638Z,1.30
2023-04-16T15:42:35.737Z,0.90
2023-04-16T15:45:03.154Z,0.82
2023-04-16T15:47:30.541Z,0.75
2023-04-16T15:49:57.646Z,0.82
2023-04-16T15:52:25.021Z,0.70
2023-04-16T15:54:52.075Z,0.90
2023-04-16T15:57:19.440Z,0.70
2023-04-16T16:00:03.185Z,0.85
2023-04-16T16:02:34.140Z,0.80
2023-04-16T16:05:01.441Z,1.67
2023-04-16T16:07:28.590Z,0.80
2023-04-16T16:09:56.329Z,0.93
2023-04-16T16:12:23.508Z,1.98
2023-04-16T16:14:50.945Z,1.40
2023-04-16T16:17:20.327Z,0.82
2023-04-16T16:19:47.564Z,1.10
2023-04-16T16:22:16.026Z,1.12
2023-04-16T16:24:44.078Z,1.10
2023-04-16T16:27:11.200Z,1.25
2023-04-16T16:29:38.319Z,0.98
2023-04-16T16:32:06.044Z,1.40
2023-04-16T16:34:33.283Z,1.02
2023-04-16T16:37:00.589Z,1.25
2023-04-16T16:39:28.014Z,1.60
2023-04-16T16:41:55.105Z,1.08
2023-04-16T16:44:23.077Z,1.35
2023-04-16T16:46:51.386Z,1.40
2023-04-16T16:49:18.619Z,1.37
2023-04-16T16:51:49.023Z,1.75
2023-04-16T16:54:16.395Z,1.98
2023-04-16T16:56:43.551Z,1.77
2023-04-16T16:59:11.008Z,2.17
2023-04-16T17:01:38.864Z,1.45
2023-04-16T17:04:06.183Z,1.70
2023-04-16T17:06:34.181Z,1.75
2023-04-16T17:09:01.964Z,1.87
2023-04-16T17:11:29.364Z,2.00
2023-04-16T17:13:56.768Z,1.67
2023-04-16T17:16:24.266Z,1.95
2023-04-16T17:18:51.370Z,1.70
2023-04-16T17:21:18.538Z,1.95
2023-04-16T17:23:45.904Z,1.70
2023-04-16T17:26:12.994Z,2.00
2023-04-16T17:28:40.088Z,1.92
2023-04-16T17:31:08.517Z,2.20
2023-04-16T17:33:35.817Z,2.37
2023-04-16T17:36:03.032Z,2.35
2023-04-16T17:38:30.498Z,2.70
2023-04-16T17:40:58.113Z,2.97
2023-04-16T17:43:25.378Z,2.92
2023-04-16T17:45:52.796Z,2.83
2023-04-16T17:48:19.949Z,2.67
2023-04-16T17:50:47.161Z,3.03
2023-04-16T17:53:14.634Z,2.53
2023-04-16T17:55:50.688Z,3.15
2023-04-16T17:58:18.154Z,3.37
2023-04-16T18:00:45.883Z,3.05
2023-04-16T18:03:14.781Z,4.65
2023-04-16T18:05:41.998Z,4.50
2023-04-16T18:08:09.143Z,3.15
2023-04-16T18:10:38.707Z,3.30
2023-04-16T18:13:05.770Z,3.20
2023-04-16T18:15:36.999Z,3.12
2023-04-16T18:18:05.568Z,2.97
2023-04-16T18:20:32.844Z,2.70
2023-04-16T18:23:01.255Z,3.00
2023-04-16T18:25:34.294Z,2.80
2023-04-16T18:28:03.893Z,2.80
2023-04-16T18:30:31.458Z,2.60
2023-04-16T18:35:28.614Z,3.00
2023-04-16T18:37:56.093Z,3.40
2023-04-16T18:40:23.299Z,2.75
2023-04-16T18:42:50.640Z,2.35
2023-04-16T18:45:21.730Z,2.47
2023-04-16T18:47:51.346Z,2.70
2023-04-16T18:50:18.811Z,4.25
2023-04-16T18:52:45.916Z,3.47
2023-04-16T18:55:13.001Z,4.05
2023-04-16T18:57:40.395Z,3.92
2023-04-16T19:00:12.498Z,2.42
2023-04-16T19:02:40.168Z,2.25
2023-04-16T19:05:09.011Z,2.55
2023-04-16T19:07:37.059Z,2.87
2023-04-16T19:10:05.316Z,2.10
2023-04-16T19:12:32.732Z,2.60
2023-04-16T19:15:00.427Z,2.78
2023-04-16T19:17:27.569Z,2.53
2023-04-16T19:19:54.917Z,2.53
2023-04-16T19:22:22.080Z,2.25
2023-04-16T19:24:49.245Z,2.33
2023-04-16T19:27:16.788Z,2.22
2023-04-16T19:29:45.535Z,2.83
2023-04-16T19:32:14.048Z,2.65
2023-04-16T19:34:41.710Z,2.30
2023-04-16T19:37:08.816Z,1.95
2023-04-16T19:39:36.484Z,2.40
2023-04-16T19:42:04.212Z,2.80
2023-04-16T19:44:32.353Z,2.62
2023-04-16T19:46:59.868Z,2.58
2023-04-16T19:49:34.359Z,2.50
2023-04-16T19:52:01.752Z,2.35
2023-04-16T19:54:29.232Z,2.33
2023-04-16T19:56:57.084Z,2.40
2023-04-16T19:59:25.045Z,2.17
2023-04-16T20:01:52.163Z,2.20
2023-04-16T20:04:19.817Z,3.05
2023-04-16T20:06:46.995Z,2.30
2023-04-16T20:09:14.076Z,2.60
2023-04-16T20:11:41.451Z,2.28
2023-04-16T20:14:10.937Z,2.67
2023-04-16T20:16:38.721Z,2.65
2023-04-16T20:19:08.546Z,2.42
2023-04-16T20:21:36.182Z,2.40
2023-04-16T20:24:03.421Z,2.22
2023-04-16T20:26:34.146Z,3.28
2023-04-16T20:29:01.351Z,2.37
2023-04-16T20:31:29.240Z,2.75
2023-04-16T20:33:56.665Z,2.45
2023-04-16T20:36:23.743Z,2.67
2023-04-16T20:38:53.817Z,2.17
2023-04-16T20:41:22.507Z,2.28
2023-04-16T20:43:50.317Z,2.10
2023-04-16T20:46:17.795Z,2.00
2023-04-16T20:48:45.384Z,2.20
2023-04-16T20:51:13.051Z,2.37
2023-04-16T20:53:40.391Z,2.15
2023-04-16T20:56:09.185Z,2.30
2023-04-16T20:58:36.337Z,2.22
2023-04-16T21:01:04.787Z,2.00
2023-04-16T21:03:32.417Z,2.15
2023-04-16T21:06:01.833Z,2.05
2023-04-16T21:08:29.081Z,1.67
2023-04-16T21:10:56.366Z,1.95
2023-04-16T21:13:23.489Z,2.17
2023-04-16T21:15:50.760Z,1.85
2023-04-16T21:18:18.617Z,1.95
2023-04-16T21:20:46.584Z,1.75
2023-04-16T21:23:13.723Z,2.35
2023-04-16T21:25:41.170Z,1.75
2023-04-16T21:28:08.278Z,1.80
2023-04-16T21:30:35.412Z,2.03
2023-04-16T21:33:03.341Z,1.80
2023-04-16T21:35:33.603Z,1.50
2023-04-16T21:38:00.747Z,1.50
2023-04-16T21:40:28.190Z,2.00
2023-04-16T21:42:55.445Z,1.60
2023-04-16T21:45:22.907Z,1.90
2023-04-16T21:47:50.369Z,1.60
2023-04-16T21:50:17.674Z,2.05
2023-04-16T21:52:46.756Z,1.80
2023-04-16T21:55:14.726Z,1.40
2023-04-16T21:57:41.885Z,1.83
2023-04-16T22:00:13.712Z,1.75
2023-04-16T22:02:42.593Z,1.52
2023-04-16T22:05:11.379Z,1.70
2023-04-16T22:07:38.583Z,2.05
2023-04-16T22:10:06.810Z,2.12
2023-04-16T22:12:37.759Z,1.50
2023-04-16T22:15:06.157Z,1.35
2023-04-16T22:17:34.363Z,1.67
2023-04-16T22:20:04.890Z,2.53
2023-04-16T22:22:32.016Z,1.42
2023-04-16T22:24:59.520Z,1.77
2023-04-16T22:27:26.632Z,1.33
2023-04-16T22:29:53.854Z,1.30
2023-04-16T22:32:21.641Z,1.30
2023-04-16T22:34:48.816Z,1.27
2023-04-16T22:37:15.986Z,1.50
2023-04-16T22:39:43.429Z,1.40
2023-04-16T22:42:10.561Z,1.25
2023-04-16T22:44:37.890Z,1.37
2023-04-16T22:47:05.534Z,1.62
2023-04-16T22:49:33.168Z,1.58
2023-04-16T22:52:00.882Z,1.10
2023-04-16T22:54:29.532Z,1.27
2023-04-16T22:56:57.571Z,1.37
2023-04-16T22:59:25.277Z,1.95
2023-04-16T23:01:52.972Z,1.37
2023-04-16T23:04:20.421Z,1.85
2023-04-16T23:06:47.553Z,1.40
2023-04-16T23:09:14.982Z,1.52
2023-04-16T23:11:42.087Z,1.58
2023-04-16T23:14:09.688Z,1.62
2023-04-16T23:16:37.160Z,1.35
2023-04-16T23:19:04.229Z,1.70
2023-04-16T23:21:32.439Z,1.60
2023-04-16T23:24:00.070Z,1.73
2023-04-16T23:26:27.230Z,1.52
2023-04-16T23:28:54.231Z,1.80
2023-04-16T23:31:21.729Z,2.00
2023-04-16T23:33:48.846Z,1.50
2023-04-16T23:36:15.922Z,2.17
2023-04-16T23:38:43.439Z,2.25
2023-04-16T23:41:10.750Z,1.85
2023-04-16T23:43:40.103Z,2.25
2023-04-16T23:46:07.769Z,1.70
2023-04-16T23:48:34.960Z,1.48
2023-04-16T23:51:02.127Z,1.40
2023-04-16T23:53:29.693Z,1.70
2023-04-16T23:55:56.809Z,2.20
2023-04-16T23:58:24.332Z,1.40
